Naples, Kentucky
Current Conditions -  °F | °C
As of 4:51 AM on Sunday 25 Jan 2015 (Local Time) from KHTS Reporting Station
Haze Haze  
Wind Chill: 28°   Ceiling: Unl
Heat Index: 33°   Visibility: 6mi
Dew Point: 31°   Wind: 6mph
Humidity: 92%   Direction: 200°SSW
Pressure: 29.8"   Gusts: NA
Location:  38.4314°N, 82.6662°W
Report Text: KHTS 250951Z 20005KT 6SM BR CLR 01/M01 A2980 RMK AO2 SLP096 T00061006
Loading
Personal Weather Stations






























Interactive Weather Map New forecast layout! Learn more

10-Day Weather Forecast

Advertisements
Track Severe Weather on mobile